createdAt,value
2023-04-15T00:00:57.797Z,9.32
2023-04-15T00:03:25.178Z,10.15
2023-04-15T00:05:52.284Z,12.27
2023-04-15T00:08:19.634Z,18.20
2023-04-15T00:10:46.871Z,14.98
2023-04-15T00:13:13.765Z,10.95
2023-04-15T00:15:41.095Z,13.13
2023-04-15T00:18:08.368Z,14.35
2023-04-15T00:20:35.908Z,17.33
2023-04-15T00:23:04.399Z,14.38
2023-04-15T00:25:31.662Z,11.32
2023-04-15T00:27:58.579Z,15.00
2023-04-15T00:30:26.758Z,13.45
2023-04-15T00:32:53.755Z,11.98
2023-04-15T00:35:22.977Z,12.15
2023-04-15T00:37:51.598Z,15.15
2023-04-15T00:40:21.217Z,13.52
2023-04-15T00:42:48.343Z,11.93
2023-04-15T00:45:15.872Z,12.57
2023-04-15T00:47:44.521Z,15.13
2023-04-15T00:50:12.952Z,13.85
2023-04-15T00:52:41.043Z,15.05
2023-04-15T00:55:08.994Z,12.68
2023-04-15T00:57:36.683Z,15.10
2023-04-15T01:00:05.857Z,13.35
2023-04-15T01:02:33.708Z,14.90
2023-04-15T01:05:02.888Z,13.18
2023-04-15T01:07:29.807Z,10.73
2023-04-15T01:09:57.164Z,13.38
2023-04-15T01:12:26.499Z,14.57
2023-04-15T01:14:57.395Z,13.10
2023-04-15T01:17:25.571Z,14.07
2023-04-15T01:19:53.071Z,14.60
2023-04-15T01:22:19.899Z,15.15
2023-04-15T01:25:02.160Z,15.23
2023-04-15T01:27:31.459Z,12.55
2023-04-15T01:29:58.708Z,16.48
2023-04-15T01:32:25.682Z,13.10
2023-04-15T01:34:52.610Z,14.15
2023-04-15T01:39:51.764Z,15.93
2023-04-15T01:42:18.699Z,17.55
2023-04-15T01:44:45.558Z,12.43
2023-04-15T01:47:12.728Z,14.90
2023-04-15T01:49:39.543Z,14.05
2023-04-15T01:52:06.553Z,13.90
2023-04-15T01:54:33.716Z,20.63
2023-04-15T01:57:00.532Z,17.55
2023-04-15T01:59:27.625Z,15.85
2023-04-15T02:01:55.380Z,14.88
2023-04-15T02:04:22.273Z,15.00
2023-04-15T02:06:49.145Z,15.63
2023-04-15T02:09:15.988Z,14.95
2023-04-15T02:11:46.205Z,15.55
2023-04-15T02:14:13.172Z,16.00
2023-04-15T02:16:40.041Z,13.95
2023-04-15T02:19:08.103Z,17.92
2023-04-15T02:21:37.585Z,17.92
2023-04-15T02:24:04.722Z,18.80
2023-04-15T02:26:34.421Z,16.70
2023-04-15T02:29:01.486Z,18.33
2023-04-15T02:31:28.519Z,18.77
2023-04-15T02:33:55.399Z,19.02
2023-04-15T02:36:22.239Z,18.73
2023-04-15T02:38:49.042Z,21.92
2023-04-15T02:41:16.864Z,21.38
2023-04-15T02:43:45.589Z,18.10
2023-04-15T02:46:15.049Z,20.48
2023-04-15T02:48:42.106Z,17.15
2023-04-15T02:51:23.014Z,19.05
2023-04-15T02:53:50.217Z,19.55
2023-04-15T02:56:17.538Z,23.15
2023-04-15T02:58:45.866Z,21.73
2023-04-15T03:01:13.106Z,21.65
2023-04-15T03:03:41.606Z,21.85
2023-04-15T03:06:09.247Z,22.48
2023-04-15T03:08:37.274Z,23.10
2023-04-15T03:11:04.942Z,25.38
2023-04-15T03:13:33.106Z,23.30
2023-04-15T03:16:05.920Z,22.80
2023-04-15T03:18:33.118Z,24.25
2023-04-15T03:21:03.140Z,25.48
2023-04-15T03:23:33.399Z,22.08
2023-04-15T03:26:04.808Z,23.83
2023-04-15T03:28:33.649Z,24.38
2023-04-15T03:31:01.622Z,23.17
2023-04-15T03:33:28.535Z,26.23
2023-04-15T03:35:55.406Z,19.15
2023-04-15T03:38:22.226Z,22.38
2023-04-15T03:40:49.094Z,31.48
2023-04-15T03:43:15.930Z,26.58
2023-04-15T03:45:42.771Z,24.55
2023-04-15T03:48:17.397Z,28.38
2023-04-15T03:50:45.236Z,25.15
2023-04-15T03:53:12.164Z,26.15
2023-04-15T03:55:38.956Z,29.15
2023-04-15T03:58:05.828Z,28.55
2023-04-15T04:00:32.659Z,28.58
2023-04-15T04:02:59.607Z,29.00
2023-04-15T04:05:26.540Z,33.55
2023-04-15T04:07:53.368Z,33.25
2023-04-15T04:10:20.310Z,28.13
2023-04-15T04:12:47.240Z,33.35
2023-04-15T04:15:14.087Z,34.60
2023-04-15T04:17:41.058Z,36.88
2023-04-15T04:20:08.563Z,37.38
2023-04-15T04:22:41.967Z,31.08
2023-04-15T04:25:10.371Z,37.13
2023-04-15T04:27:37.406Z,39.22
2023-04-15T04:30:05.273Z,34.45
2023-04-15T04:32:32.513Z,41.63
2023-04-15T04:34:59.391Z,36.92
2023-04-15T04:37:26.248Z,35.25
2023-04-15T04:39:53.122Z,38.33
2023-04-15T04:42:20.004Z,36.55
2023-04-15T04:44:47.411Z,36.55
2023-04-15T04:47:14.277Z,34.85
2023-04-15T04:49:41.471Z,39.90
2023-04-15T04:52:08.358Z,36.33
2023-04-15T04:54:35.217Z,36.03
2023-04-15T04:57:02.510Z,36.42
2023-04-15T04:59:29.407Z,40.58
2023-04-15T05:01:56.774Z,37.70
2023-04-15T05:04:23.673Z,34.33
2023-04-15T05:06:50.645Z,35.97
2023-04-15T05:09:17.569Z,32.38
2023-04-15T05:11:44.355Z,32.85
2023-04-15T05:14:11.287Z,35.78
2023-04-15T05:16:38.099Z,33.20
2023-04-15T05:19:04.986Z,33.63
2023-04-15T05:21:32.351Z,35.40
2023-04-15T05:23:59.194Z,39.25
2023-04-15T05:26:27.706Z,28.73
2023-04-15T05:28:54.489Z,33.35
2023-04-15T05:31:21.356Z,37.05
2023-04-15T05:33:48.228Z,34.10
2023-04-15T05:36:15.044Z,26.45
2023-04-15T05:38:42.298Z,28.15
2023-04-15T05:41:09.541Z,32.33
2023-04-15T05:43:36.418Z,26.63
2023-04-15T05:46:03.334Z,28.25
2023-04-15T05:48:30.210Z,21.73
2023-04-15T05:50:57.088Z,25.65
2023-04-15T05:53:24.017Z,22.33
2023-04-15T05:55:51.061Z,27.17
2023-04-15T05:58:17.997Z,23.83
2023-04-15T06:00:44.945Z,23.60
2023-04-15T06:03:12.118Z,20.58
2023-04-15T06:05:39.111Z,21.10
2023-04-15T06:08:06.236Z,21.42
2023-04-15T06:10:36.826Z,23.42
2023-04-15T06:13:04.511Z,20.60
2023-04-15T06:15:31.969Z,23.63
2023-04-15T06:17:58.893Z,20.25
2023-04-15T06:20:25.999Z,20.95
2023-04-15T06:22:52.955Z,17.23
2023-04-15T06:25:20.149Z,17.23
2023-04-15T06:27:47.097Z,15.77
2023-04-15T06:30:14.020Z,20.10
2023-04-15T06:32:41.246Z,17.60
2023-04-15T06:35:08.559Z,15.40
2023-04-15T06:37:35.685Z,14.98
2023-04-15T06:40:02.554Z,15.90
2023-04-15T06:42:29.632Z,16.75
2023-04-15T06:44:56.508Z,15.70
2023-04-15T06:47:23.461Z,13.02
2023-04-15T06:49:50.603Z,14.85
2023-04-15T06:52:17.816Z,15.85
2023-04-15T06:54:44.738Z,16.85
2023-04-15T06:57:11.713Z,17.10
2023-04-15T06:59:38.639Z,15.90
2023-04-15T07:02:05.579Z,15.32
2023-04-15T07:04:33.165Z,14.20
2023-04-15T07:07:02.669Z,15.93
2023-04-15T07:09:29.990Z,16.08
2023-04-15T07:11:56.840Z,13.38
2023-04-15T07:14:23.652Z,12.75
2023-04-15T07:16:50.849Z,12.10
2023-04-15T07:19:17.672Z,11.73
2023-04-15T07:21:44.482Z,12.00
2023-04-15T07:24:11.335Z,11.90
2023-04-15T07:26:38.210Z,13.50
2023-04-15T07:29:04.981Z,12.90
2023-04-15T07:31:31.912Z,13.10
2023-04-15T07:33:58.858Z,14.35
2023-04-15T07:36:25.837Z,12.10
2023-04-15T07:38:53.025Z,16.92
2023-04-15T07:41:20.691Z,12.75
2023-04-15T07:43:48.986Z,10.68
2023-04-15T07:46:16.402Z,13.75
2023-04-15T07:48:43.486Z,9.30
2023-04-15T07:51:11.069Z,12.35
2023-04-15T07:53:38.351Z,11.18
2023-04-15T07:56:05.869Z,12.95
2023-04-15T07:58:32.766Z,9.45
2023-04-15T08:00:59.677Z,11.02
2023-04-15T08:03:26.986Z,8.55
2023-04-15T08:05:54.819Z,11.00
2023-04-15T08:08:22.459Z,10.13
2023-04-15T08:10:52.066Z,10.52
2023-04-15T08:13:19.842Z,10.07
2023-04-15T08:15:46.943Z,13.85
2023-04-15T08:18:13.902Z,8.57
2023-04-15T08:20:40.978Z,9.23
2023-04-15T08:23:08.012Z,14.68
2023-04-15T08:25:34.843Z,9.27
2023-04-15T08:28:05.567Z,13.10
2023-04-15T08:30:32.426Z,9.75
2023-04-15T08:32:59.226Z,9.98
2023-04-15T08:35:26.198Z,10.05
2023-04-15T08:37:53.015Z,11.10
2023-04-15T08:40:22.054Z,7.72
2023-04-15T08:42:53.168Z,8.27
2023-04-15T08:45:21.790Z,12.88
2023-04-15T08:47:55.399Z,13.27
2023-04-15T08:50:24.025Z,8.48
2023-04-15T08:52:55.401Z,9.65
2023-04-15T08:55:22.993Z,10.15
2023-04-15T08:57:51.005Z,10.50
2023-04-15T09:00:18.494Z,8.60
2023-04-15T09:02:45.784Z,9.93
2023-04-15T09:05:13.075Z,9.15
2023-04-15T09:07:39.872Z,7.90
2023-04-15T09:10:07.545Z,11.23
2023-04-15T09:12:37.808Z,8.35
2023-04-15T09:15:05.090Z,7.32
2023-04-15T09:17:33.868Z,9.25
2023-04-15T09:20:13.758Z,11.00
2023-04-15T09:22:41.915Z,8.35
2023-04-15T09:25:30.263Z,8.35
2023-04-15T09:28:01.862Z,8.02
2023-04-15T09:30:29.715Z,7.47
2023-04-15T09:32:58.629Z,10.70
2023-04-15T09:35:26.821Z,8.25
2023-04-15T09:38:02.031Z,8.23
2023-04-15T09:40:33.961Z,7.32
2023-04-15T09:43:05.386Z,9.95
2023-04-15T09:45:34.277Z,11.10
2023-04-15T09:48:16.197Z,9.60
2023-04-15T09:50:44.217Z,7.65
2023-04-15T09:53:12.628Z,7.75
2023-04-15T09:55:39.631Z,9.40
2023-04-15T09:58:17.646Z,6.90
2023-04-15T10:00:44.573Z,9.25
2023-04-15T10:03:12.139Z,7.32
2023-04-15T10:05:39.867Z,9.68
2023-04-15T10:08:09.614Z,6.25
2023-04-15T10:10:36.860Z,7.50
2023-04-15T10:13:03.937Z,6.82
2023-04-15T10:15:32.667Z,5.70
2023-04-15T10:18:01.571Z,7.95
2023-04-15T10:20:29.939Z,5.18
2023-04-15T10:22:58.065Z,8.27
2023-04-15T10:25:27.242Z,7.03
2023-04-15T10:27:54.684Z,5.28
2023-04-15T10:30:22.769Z,6.90
2023-04-15T10:32:50.648Z,8.70
2023-04-15T10:35:18.879Z,7.95
2023-04-15T10:37:45.931Z,6.75
2023-04-15T10:40:28.301Z,10.38
2023-04-15T10:45:27.459Z,9.43
2023-04-15T10:47:59.343Z,8.43
2023-04-15T10:50:28.442Z,10.30
2023-04-15T10:52:56.691Z,7.90
2023-04-15T10:55:31.725Z,7.20
2023-04-15T10:58:01.662Z,6.15
2023-04-15T11:02:59.611Z,9.23
2023-04-15T11:05:41.791Z,9.27
2023-04-15T11:08:12.761Z,9.05
2023-04-15T11:10:39.536Z,9.45
2023-04-15T11:13:17.698Z,8.32
2023-04-15T11:15:48.224Z,8.50
2023-04-15T11:18:18.168Z,4.78
2023-04-15T11:20:57.753Z,7.60
2023-04-15T11:23:47.117Z,6.57
2023-04-15T11:26:15.045Z,8.13
2023-04-15T11:28:45.115Z,11.07
2023-04-15T11:33:55.751Z,7.03
2023-04-15T11:36:27.473Z,7.80
2023-04-15T11:38:54.675Z,8.60
2023-04-15T11:41:23.098Z,7.68
2023-04-15T11:43:51.020Z,8.23
2023-04-15T11:46:18.346Z,8.00
2023-04-15T11:48:46.846Z,6.90
2023-04-15T11:51:14.667Z,10.85
2023-04-15T11:53:43.904Z,10.57
2023-04-15T11:56:17.106Z,5.95
2023-04-15T11:58:44.926Z,7.70
2023-04-15T12:01:12.083Z,10.73
2023-04-15T12:03:44.166Z,7.82
2023-04-15T12:06:23.991Z,12.50
2023-04-15T12:09:09.484Z,8.48
2023-04-15T12:11:53.956Z,8.57
2023-04-15T12:14:23.008Z,8.00
2023-04-15T12:16:52.570Z,11.45
2023-04-15T12:19:39.353Z,11.30
2023-04-15T12:22:11.072Z,12.60
2023-04-15T12:24:38.801Z,9.70
2023-04-15T12:27:07.809Z,13.52
2023-04-15T12:29:36.731Z,9.25
2023-04-15T12:32:17.311Z,8.45
2023-04-15T12:34:44.834Z,9.00
2023-04-15T12:37:13.352Z,12.77
2023-04-15T12:39:43.139Z,7.80
2023-04-15T12:42:11.015Z,10.13
2023-04-15T12:44:39.362Z,10.75
2023-04-15T12:47:07.920Z,8.73
2023-04-15T12:49:35.294Z,7.93
2023-04-15T12:52:02.880Z,6.93
2023-04-15T12:54:30.789Z,12.50
2023-04-15T12:56:58.480Z,14.02
2023-04-15T12:59:25.501Z,7.85
2023-04-15T13:01:54.157Z,15.00
2023-04-15T13:04:22.420Z,10.05
2023-04-15T13:06:49.793Z,15.20
2023-04-15T13:09:16.762Z,16.95
2023-04-15T13:11:44.024Z,9.93
2023-04-15T13:14:14.049Z,12.27
2023-04-15T13:16:41.740Z,15.18
2023-04-15T13:19:08.978Z,8.80
2023-04-15T13:21:36.504Z,9.93
2023-04-15T13:24:04.853Z,21.58
2023-04-15T13:26:32.312Z,13.43
2023-04-15T13:28:59.736Z,13.40
2023-04-15T13:31:27.418Z,14.73
2023-04-15T13:33:54.393Z,16.08
2023-04-15T13:36:21.330Z,11.02
2023-04-15T13:38:50.966Z,11.45
2023-04-15T13:41:18.186Z,12.82
2023-04-15T13:43:45.004Z,12.50
2023-04-15T13:46:11.880Z,13.18
2023-04-15T13:48:38.816Z,10.85
2023-04-15T13:51:05.726Z,10.48
2023-04-15T13:53:38.021Z,12.48
2023-04-15T13:56:10.025Z,11.57
2023-04-15T13:58:38.346Z,11.82
2023-04-15T14:01:07.094Z,12.57
2023-04-15T14:03:38.336Z,12.38
2023-04-15T14:06:06.345Z,14.45
2023-04-15T14:08:33.951Z,13.93
2023-04-15T14:11:00.985Z,12.32
2023-04-15T14:13:28.089Z,8.73
2023-04-15T14:15:54.989Z,11.23
2023-04-15T14:18:21.866Z,7.65
2023-04-15T14:20:48.681Z,12.77
2023-04-15T14:23:15.608Z,16.92
2023-04-15T14:25:42.529Z,11.82
2023-04-15T14:28:09.428Z,10.93
2023-04-15T14:30:36.410Z,13.73
2023-04-15T14:33:04.193Z,31.02
2023-04-15T14:35:31.655Z,14.13
2023-04-15T14:37:58.570Z,7.03
2023-04-15T14:40:25.496Z,12.52
2023-04-15T14:42:52.443Z,16.50
2023-04-15T14:45:19.345Z,14.60
2023-04-15T14:47:46.926Z,10.13
2023-04-15T14:50:13.788Z,14.35
2023-04-15T14:52:40.817Z,19.50
2023-04-15T14:55:12.178Z,18.60
2023-04-15T14:57:40.159Z,14.35
2023-04-15T15:00:08.405Z,13.50
2023-04-15T15:02:39.642Z,18.33
2023-04-15T15:05:09.056Z,15.60
2023-04-15T15:07:37.447Z,16.60
2023-04-15T15:10:08.237Z,16.27
2023-04-15T15:12:35.198Z,21.25
2023-04-15T15:15:12.397Z,20.20
2023-04-15T15:17:43.164Z,21.55
2023-04-15T15:20:10.693Z,23.13
2023-04-15T15:22:37.612Z,21.63
2023-04-15T15:25:05.400Z,21.95
2023-04-15T15:27:32.305Z,17.92
2023-04-15T15:29:59.418Z,30.50
2023-04-15T15:32:26.358Z,25.30
2023-04-15T15:34:53.678Z,23.83
2023-04-15T15:37:20.572Z,25.98
2023-04-15T15:39:47.438Z,29.48
2023-04-15T15:42:14.295Z,34.65
2023-04-15T15:44:41.083Z,23.90
2023-04-15T15:47:08.391Z,29.40
2023-04-15T15:49:35.956Z,36.58
2023-04-15T15:52:03.131Z,30.95
2023-04-15T15:54:30.066Z,31.63
2023-04-15T15:56:57.709Z,35.50
2023-04-15T15:59:25.760Z,35.13
2023-04-15T16:01:52.961Z,33.88
2023-04-15T16:04:20.073Z,37.65
2023-04-15T16:06:47.246Z,37.40
2023-04-15T16:09:14.307Z,47.70
2023-04-15T16:11:41.791Z,31.95
2023-04-15T16:14:08.719Z,40.65
2023-04-15T16:16:35.776Z,43.67
2023-04-15T16:19:02.816Z,41.17
2023-04-15T16:21:29.914Z,35.33
2023-04-15T16:23:56.836Z,42.85
2023-04-15T16:26:24.067Z,37.53
2023-04-15T16:28:50.881Z,40.47
2023-04-15T16:31:17.727Z,40.85
2023-04-15T16:33:44.683Z,42.28
2023-04-15T16:36:11.465Z,38.55
2023-04-15T16:38:38.331Z,47.83
2023-04-15T16:41:05.264Z,47.78
2023-04-15T16:43:32.122Z,50.15
2023-04-15T16:45:58.970Z,45.50
2023-04-15T16:48:26.412Z,45.25
2023-04-15T16:50:53.247Z,39.83
2023-04-15T16:53:20.074Z,44.22
2023-04-15T16:55:46.897Z,44.88
2023-04-15T16:58:13.782Z,48.53
2023-04-15T17:00:40.708Z,44.33
2023-04-15T17:03:07.709Z,44.88
2023-04-15T17:05:34.751Z,51.92
2023-04-15T17:08:01.731Z,48.97
2023-04-15T17:10:28.592Z,46.45
2023-04-15T17:12:58.533Z,50.78
2023-04-15T17:15:26.211Z,62.30
2023-04-15T17:17:53.262Z,52.20
2023-04-15T17:20:20.354Z,52.83
2023-04-15T17:22:48.752Z,56.53
2023-04-15T17:25:15.616Z,43.72
2023-04-15T17:27:42.529Z,50.45
2023-04-15T17:30:09.953Z,52.53
2023-04-15T17:32:40.320Z,51.08
2023-04-15T17:35:07.956Z,55.10
2023-04-15T17:37:35.170Z,51.55
2023-04-15T17:40:02.656Z,53.78
2023-04-15T17:42:29.474Z,53.50
2023-04-15T17:44:56.306Z,51.80
2023-04-15T17:47:23.229Z,60.90
2023-04-15T17:49:50.073Z,56.55
2023-04-15T17:52:17.048Z,53.20
2023-04-15T17:54:44.018Z,51.38
2023-04-15T17:57:10.965Z,59.60
2023-04-15T17:59:38.153Z,51.10
2023-04-15T18:02:05.064Z,50.22
2023-04-15T18:04:32.279Z,60.83
2023-04-15T18:06:59.345Z,56.65
2023-04-15T18:09:27.465Z,53.60
2023-04-15T18:11:54.311Z,55.47
2023-04-15T18:14:33.739Z,54.03
2023-04-15T18:17:02.775Z,53.60
2023-04-15T18:19:30.541Z,60.45
2023-04-15T18:21:58.176Z,58.25
2023-04-15T18:24:25.078Z,52.65
2023-04-15T18:26:52.911Z,59.42
2023-04-15T18:29:19.825Z,52.38
2023-04-15T18:31:46.676Z,49.30
2023-04-15T18:34:13.596Z,56.55
2023-04-15T18:36:40.722Z,62.38
2023-04-15T18:39:07.960Z,62.53
2023-04-15T18:41:35.148Z,52.83
2023-04-15T18:44:01.978Z,58.30
2023-04-15T18:46:29.196Z,52.65
2023-04-15T18:48:56.034Z,60.58
2023-04-15T18:51:23.010Z,52.30
2023-04-15T18:53:49.934Z,56.10
2023-04-15T18:56:16.781Z,50.30
2023-04-15T18:59:25.004Z,52.33
2023-04-15T19:01:32.376Z,64.85
2023-04-15T19:03:59.723Z,52.58
2023-04-15T19:06:27.418Z,58.15
2023-04-15T19:08:54.921Z,57.20
2023-04-15T19:11:21.983Z,56.75
2023-04-15T19:13:49.258Z,53.70
2023-04-15T19:16:16.417Z,66.55
2023-04-15T19:18:43.510Z,55.38
2023-04-15T19:21:12.715Z,55.42
2023-04-15T19:23:39.933Z,57.08
2023-04-15T19:26:08.448Z,53.97
2023-04-15T19:28:35.711Z,57.78
2023-04-15T19:31:03.000Z,59.95
2023-04-15T19:33:31.675Z,60.97
2023-04-15T19:36:02.096Z,61.03
2023-04-15T19:38:29.414Z,60.28
2023-04-15T19:40:56.799Z,54.28
2023-04-15T19:43:24.075Z,63.40
2023-04-15T19:45:52.543Z,70.50
2023-04-15T19:48:19.877Z,57.67
2023-04-15T19:50:46.821Z,56.58
2023-04-15T19:53:14.002Z,63.80
2023-04-15T19:55:41.145Z,54.42
2023-04-15T19:58:08.041Z,63.13
2023-04-15T20:00:35.001Z,60.67
2023-04-15T20:03:02.280Z,57.08
2023-04-15T20:05:29.479Z,60.42
2023-04-15T20:07:58.623Z,58.00
2023-04-15T20:10:26.686Z,61.75
2023-04-15T20:12:53.626Z,60.70
2023-04-15T20:15:21.743Z,54.15
2023-04-15T20:17:48.620Z,60.63
2023-04-15T20:20:16.336Z,53.63
2023-04-15T20:22:43.281Z,53.53
2023-04-15T20:25:10.328Z,55.83
2023-04-15T20:27:37.232Z,62.30
2023-04-15T20:30:07.638Z,57.50
2023-04-15T20:32:36.300Z,54.55
2023-04-15T20:35:04.587Z,59.67
2023-04-15T20:37:33.779Z,64.53
2023-04-15T20:40:01.756Z,60.70
2023-04-15T20:42:32.844Z,61.33
2023-04-15T20:44:59.868Z,68.30
2023-04-15T20:47:26.899Z,54.53
2023-04-15T20:49:54.331Z,52.97
2023-04-15T20:52:21.359Z,62.97
2023-04-15T20:54:48.258Z,64.90
2023-04-15T20:57:15.088Z,61.70
2023-04-15T20:59:41.952Z,58.08
2023-04-15T21:02:08.944Z,60.35
2023-04-15T21:04:36.210Z,64.50
2023-04-15T21:07:03.003Z,64.75
2023-04-15T21:09:29.961Z,54.05
2023-04-15T21:12:01.608Z,55.08
2023-04-15T21:14:29.308Z,58.53
2023-04-15T21:16:57.980Z,63.33
2023-04-15T21:19:24.923Z,52.75
2023-04-15T21:21:51.770Z,65.40
2023-04-15T21:24:18.584Z,64.18
2023-04-15T21:26:45.633Z,66.75
2023-04-15T21:29:12.693Z,65.22
2023-04-15T21:31:41.036Z,56.63
2023-04-15T21:34:08.094Z,72.15
2023-04-15T21:36:35.057Z,59.63
2023-04-15T21:39:01.891Z,63.33
2023-04-15T21:41:28.786Z,61.70
2023-04-15T21:43:55.645Z,62.92
2023-04-15T21:46:25.698Z,59.08
2023-04-15T21:49:00.513Z,55.40
2023-04-15T21:51:27.904Z,56.47
2023-04-15T21:53:54.913Z,64.07
2023-04-15T21:56:24.396Z,58.38
2023-04-15T21:58:59.537Z,74.68
2023-04-15T22:01:26.935Z,62.33
2023-04-15T22:03:54.087Z,63.42
2023-04-15T22:06:21.681Z,70.03
2023-04-15T22:08:56.894Z,68.40
2023-04-15T22:11:28.235Z,57.83
2023-04-15T22:13:56.977Z,69.72
2023-04-15T22:16:28.427Z,72.20
2023-04-15T22:18:55.856Z,71.72
2023-04-15T22:21:23.015Z,64.90
2023-04-15T22:23:50.047Z,71.60
2023-04-15T22:26:17.055Z,61.55
2023-04-15T22:28:43.899Z,69.78
2023-04-15T22:31:10.875Z,66.32
2023-04-15T22:33:38.994Z,67.50
2023-04-15T22:36:06.106Z,68.75
2023-04-15T22:38:33.315Z,72.05
2023-04-15T22:41:00.150Z,70.15
2023-04-15T22:43:27.815Z,63.80
2023-04-15T22:45:55.363Z,69.03
2023-04-15T22:48:23.049Z,61.65
2023-04-15T22:50:50.320Z,63.20
2023-04-15T22:53:18.110Z,70.43
2023-04-15T22:55:49.189Z,62.47
2023-04-15T22:58:17.311Z,71.10
2023-04-15T23:00:44.533Z,70.25
2023-04-15T23:03:11.612Z,69.40
2023-04-15T23:05:40.213Z,61.65
2023-04-15T23:08:08.293Z,66.82
2023-04-15T23:10:35.203Z,63.88
2023-04-15T23:13:02.071Z,67.82
2023-04-15T23:15:28.920Z,66.93
2023-04-15T23:17:55.852Z,64.00
2023-04-15T23:20:22.720Z,72.57
2023-04-15T23:22:49.701Z,68.38
2023-04-15T23:25:16.860Z,82.00
2023-04-15T23:27:44.079Z,67.47
2023-04-15T23:30:11.240Z,74.30
2023-04-15T23:32:38.318Z,82.75
2023-04-15T23:35:06.177Z,68.50
2023-04-15T23:37:33.140Z,73.88
2023-04-15T23:40:00.174Z,72.50
2023-04-15T23:42:27.342Z,69.95
2023-04-15T23:44:54.820Z,70.75
2023-04-15T23:47:22.033Z,70.05
2023-04-15T23:49:48.907Z,70.45
2023-04-15T23:52:16.080Z,74.50
2023-04-15T23:54:43.001Z,76.72
2023-04-15T23:57:10.414Z,74.82
2023-04-15T23:59:37.482Z,76.40
